createdAt,value
2022-08-28T00:02:02.174Z,16.50
2022-08-28T00:05:11.107Z,16.60
2022-08-28T00:08:18.506Z,16.50
2022-08-28T00:11:26.218Z,16.50
2022-08-28T00:14:33.844Z,16.50
2022-08-28T00:17:41.031Z,16.50
2022-08-28T00:20:47.959Z,16.50
2022-08-28T00:23:54.523Z,16.50
2022-08-28T00:27:20.585Z,16.40
2022-08-28T00:30:30.546Z,16.50
2022-08-28T00:33:37.338Z,16.40
2022-08-28T00:36:43.847Z,16.40
2022-08-28T00:39:50.070Z,16.50
2022-08-28T00:42:57.881Z,16.50
2022-08-28T00:46:09.176Z,16.50
2022-08-28T00:49:19.113Z,16.50
2022-08-28T00:52:29.035Z,16.50
2022-08-28T00:55:36.183Z,16.50
2022-08-28T00:58:46.966Z,16.50
2022-08-28T01:01:57.080Z,16.50
2022-08-28T01:05:03.542Z,16.40
2022-08-28T01:08:10.228Z,16.40
2022-08-28T01:11:18.790Z,16.40
2022-08-28T01:14:29.111Z,16.30
2022-08-28T01:17:36.243Z,16.30
2022-08-28T01:20:59.563Z,16.30
2022-08-28T01:24:11.746Z,16.20
2022-08-28T01:27:18.422Z,16.20
2022-08-28T01:30:25.580Z,16.10
2022-08-28T01:33:32.103Z,16.10
2022-08-28T01:36:39.652Z,16.10
2022-08-28T01:39:47.759Z,16.10
2022-08-28T01:42:55.650Z,16.10
2022-08-28T01:46:06.697Z,16.10
2022-08-28T01:49:13.938Z,16.10
2022-08-28T01:52:26.296Z,16.10
2022-08-28T01:55:35.950Z,16.00
2022-08-28T01:58:43.327Z,16.00
2022-08-28T02:01:49.780Z,16.00
2022-08-28T02:04:56.469Z,16.00
2022-08-28T02:08:05.658Z,16.00
2022-08-28T02:11:15.821Z,16.10
2022-08-28T02:14:22.622Z,16.10
2022-08-28T02:17:29.255Z,16.10
2022-08-28T02:20:36.414Z,16.20
2022-08-28T02:23:45.022Z,16.20
2022-08-28T02:26:52.890Z,16.20
2022-08-28T02:29:59.778Z,16.20
2022-08-28T02:33:06.234Z,16.20
2022-08-28T02:36:15.302Z,16.20
2022-08-28T02:39:21.944Z,16.20
2022-08-28T02:42:29.883Z,16.20
2022-08-28T02:45:36.736Z,16.30
2022-08-28T02:48:43.446Z,16.20
2022-08-28T02:51:49.711Z,16.20
2022-08-28T02:54:56.184Z,16.20
2022-08-28T02:58:03.886Z,16.20
2022-08-28T03:01:13.897Z,16.20
2022-08-28T03:04:20.373Z,16.20
2022-08-28T03:07:27.890Z,16.30
2022-08-28T03:10:35.087Z,16.30
2022-08-28T03:13:43.198Z,16.30
2022-08-28T03:16:50.141Z,16.20
2022-08-28T03:19:56.371Z,16.20
2022-08-28T03:23:20.208Z,16.20
2022-08-28T03:26:26.666Z,16.20
2022-08-28T03:29:34.491Z,16.20
2022-08-28T03:32:41.070Z,16.20
2022-08-28T03:35:48.163Z,16.20
2022-08-28T03:38:58.456Z,16.20
2022-08-28T03:42:06.043Z,16.20
2022-08-28T03:45:15.254Z,16.20
2022-08-28T03:48:24.185Z,16.20
2022-08-28T03:51:35.007Z,16.20
2022-08-28T03:54:41.474Z,16.20
2022-08-28T03:57:48.785Z,16.20
2022-08-28T04:00:56.629Z,16.20
2022-08-28T04:04:03.265Z,16.20
2022-08-28T04:07:10.176Z,16.20
2022-08-28T04:10:16.711Z,16.20
2022-08-28T04:13:23.884Z,16.10
2022-08-28T04:16:31.745Z,16.10
2022-08-28T04:19:38.998Z,16.10
2022-08-28T04:22:45.272Z,16.10
2022-08-28T04:25:51.423Z,16.10
2022-08-28T04:28:57.783Z,16.10
2022-08-28T04:32:05.842Z,16.20
2022-08-28T04:35:13.971Z,16.20
2022-08-28T04:38:20.533Z,16.10
2022-08-28T04:41:28.225Z,16.10
2022-08-28T04:44:35.050Z,16.20
2022-08-28T04:47:43.879Z,16.10
2022-08-28T04:50:51.070Z,16.20
2022-08-28T04:53:57.899Z,16.20
2022-08-28T04:57:06.478Z,16.10
2022-08-28T05:00:13.996Z,16.10
2022-08-28T05:03:22.374Z,16.10
2022-08-28T05:06:30.892Z,16.10
2022-08-28T05:09:38.053Z,16.10
2022-08-28T05:12:44.408Z,16.10
2022-08-28T05:15:53.254Z,16.10
2022-08-28T05:19:02.939Z,16.10
2022-08-28T05:22:10.277Z,16.10
2022-08-28T05:25:17.034Z,16.20
2022-08-28T05:28:25.258Z,16.20
2022-08-28T05:31:33.017Z,16.20
2022-08-28T05:34:40.694Z,16.20
2022-08-28T05:37:47.326Z,16.20
2022-08-28T05:40:53.726Z,16.20
2022-08-28T05:44:01.150Z,16.30
2022-08-28T05:47:07.889Z,16.30
2022-08-28T05:50:16.674Z,16.30
2022-08-28T05:53:22.802Z,16.30
2022-08-28T05:56:32.728Z,16.40
2022-08-28T05:59:39.124Z,16.40
2022-08-28T06:02:45.350Z,16.50
2022-08-28T06:05:57.434Z,16.50
2022-08-28T06:09:08.606Z,16.50
2022-08-28T06:12:15.708Z,16.60
2022-08-28T06:15:22.197Z,16.60
2022-08-28T06:18:28.676Z,16.60
2022-08-28T06:21:37.680Z,16.70
2022-08-28T06:24:44.405Z,16.70
2022-08-28T06:27:50.941Z,16.80
2022-08-28T06:31:18.694Z,16.80
2022-08-28T06:34:24.410Z,16.90
2022-08-28T06:37:32.189Z,16.90
2022-08-28T06:40:44.722Z,16.90
2022-08-28T06:43:51.027Z,17.00
2022-08-28T06:46:57.750Z,17.10
2022-08-28T06:50:04.853Z,17.10
2022-08-28T06:53:16.352Z,17.20
2022-08-28T06:56:25.907Z,17.40
2022-08-28T06:59:33.171Z,17.50
2022-08-28T07:02:39.495Z,17.50
2022-08-28T07:05:46.074Z,17.60
2022-08-28T07:08:54.111Z,17.60
2022-08-28T07:12:00.903Z,17.60
2022-08-28T07:15:08.823Z,17.70
2022-08-28T07:18:15.547Z,17.70
2022-08-28T07:21:22.128Z,17.90
2022-08-28T07:24:30.186Z,18.20
2022-08-28T07:27:36.347Z,18.60
2022-08-28T07:30:42.741Z,18.80
2022-08-28T07:33:50.123Z,19.00
2022-08-28T07:37:04.178Z,19.10
2022-08-28T07:40:13.807Z,19.20
2022-08-28T07:43:37.951Z,19.20
2022-08-28T07:46:45.163Z,19.20
2022-08-28T07:49:53.442Z,19.30
2022-08-28T07:52:59.866Z,19.50
2022-08-28T07:56:09.125Z,19.70
2022-08-28T07:59:17.479Z,20.00
2022-08-28T08:02:26.130Z,20.10
2022-08-28T08:05:32.551Z,20.10
2022-08-28T08:08:38.906Z,20.00
2022-08-28T08:11:47.297Z,20.20
2022-08-28T08:14:56.185Z,20.40
2022-08-28T08:18:02.438Z,20.60
2022-08-28T08:21:12.490Z,20.70
2022-08-28T08:24:21.007Z,20.90
2022-08-28T08:27:28.775Z,21.20
2022-08-28T08:30:35.382Z,21.40
2022-08-28T08:33:45.577Z,21.80
2022-08-28T08:36:52.273Z,22.30
2022-08-28T08:39:58.565Z,22.90
2022-08-28T08:43:06.613Z,23.60
2022-08-28T08:46:13.026Z,23.90
2022-08-28T08:49:22.703Z,24.10
2022-08-28T08:52:51.501Z,24.30
2022-08-28T08:56:00.056Z,24.70
2022-08-28T08:59:16.567Z,25.20
2022-08-28T09:02:31.611Z,25.50
2022-08-28T09:05:50.097Z,25.30
2022-08-28T09:09:01.584Z,25.70
2022-08-28T09:12:10.983Z,26.10
2022-08-28T09:15:28.974Z,26.40
2022-08-28T09:18:36.562Z,26.60
2022-08-28T09:21:47.085Z,26.80
2022-08-28T09:24:53.525Z,26.90
2022-08-28T09:28:08.435Z,27.10
2022-08-28T09:31:31.594Z,26.70
2022-08-28T09:34:39.258Z,26.20
2022-08-28T09:37:46.183Z,25.90
2022-08-28T09:41:26.929Z,25.90
2022-08-28T09:44:33.485Z,26.20
2022-08-28T09:47:52.207Z,26.60
2022-08-28T09:51:03.608Z,26.50
2022-08-28T09:54:19.335Z,26.70
2022-08-28T09:57:25.891Z,27.10
2022-08-28T10:00:37.037Z,27.20
2022-08-28T10:03:54.859Z,27.40
2022-08-28T10:07:06.602Z,27.60
2022-08-28T10:10:28.621Z,27.40
2022-08-28T10:13:42.013Z,27.40
2022-08-28T10:17:04.311Z,27.70
2022-08-28T10:20:19.606Z,28.10
2022-08-28T10:23:41.490Z,28.60
2022-08-28T10:26:54.471Z,28.50
2022-08-28T10:30:12.403Z,28.20
2022-08-28T10:33:44.685Z,28.10
2022-08-28T10:37:02.189Z,28.20
2022-08-28T10:40:17.195Z,28.00
2022-08-28T10:43:31.612Z,27.60
2022-08-28T10:46:43.227Z,28.30
2022-08-28T10:49:54.527Z,28.40
2022-08-28T10:53:08.306Z,28.20
2022-08-28T10:56:19.249Z,28.60
2022-08-28T10:59:30.603Z,29.20
2022-08-28T11:02:38.331Z,29.30
2022-08-28T11:05:53.778Z,28.70
2022-08-28T11:09:22.466Z,28.30
2022-08-28T11:12:43.310Z,28.50
2022-08-28T11:15:54.436Z,28.40
2022-08-28T11:19:52.451Z,28.50
2022-08-28T11:23:08.976Z,28.90
2022-08-28T11:26:31.674Z,29.00
2022-08-28T11:30:33.002Z,28.70
2022-08-28T11:33:43.342Z,28.70
2022-08-28T11:37:02.912Z,28.90
2022-08-28T11:40:20.120Z,29.10
2022-08-28T11:43:37.528Z,29.50
2022-08-28T11:46:46.116Z,29.80
2022-08-28T11:49:53.150Z,29.80
2022-08-28T11:53:27.515Z,29.80
2022-08-28T11:56:54.556Z,29.80
2022-08-28T12:00:10.391Z,29.40
2022-08-28T12:03:26.290Z,30.20
2022-08-28T12:06:52.756Z,30.50
2022-08-28T12:10:04.292Z,31.00
2022-08-28T12:13:48.011Z,30.30
2022-08-28T12:17:31.243Z,29.90
2022-08-28T12:20:58.791Z,30.30
2022-08-28T12:24:23.758Z,30.20
2022-08-28T12:27:32.631Z,30.60
2022-08-28T12:30:58.295Z,30.80
2022-08-28T12:34:12.080Z,30.70
2022-08-28T12:37:45.594Z,31.20
2022-08-28T12:40:59.526Z,31.80
2022-08-28T12:44:10.625Z,31.70
2022-08-28T12:47:22.868Z,31.40
2022-08-28T12:50:35.994Z,31.30
2022-08-28T12:53:46.255Z,32.10
2022-08-28T12:56:52.745Z,32.70
2022-08-28T13:00:11.029Z,32.40
2022-08-28T13:03:17.177Z,31.90
2022-08-28T13:06:28.958Z,32.00
2022-08-28T13:09:36.631Z,32.10
2022-08-28T13:12:55.171Z,32.20
2022-08-28T13:16:06.216Z,32.10
2022-08-28T13:19:28.218Z,32.30
2022-08-28T13:22:41.391Z,31.70
2022-08-28T13:26:05.347Z,31.80
2022-08-28T13:29:20.541Z,32.30
2022-08-28T13:32:28.155Z,32.60
2022-08-28T13:35:43.811Z,32.20
2022-08-28T13:38:51.695Z,32.40
2022-08-28T13:42:01.716Z,32.10
2022-08-28T13:45:09.943Z,31.90
2022-08-28T13:48:19.718Z,31.60
2022-08-28T13:51:27.511Z,31.60
2022-08-28T13:54:36.334Z,31.40
2022-08-28T13:57:42.655Z,31.10
2022-08-28T14:00:51.012Z,30.90
2022-08-28T14:03:57.485Z,30.80
2022-08-28T14:07:03.886Z,30.40
2022-08-28T14:10:12.185Z,30.10
2022-08-28T14:13:21.235Z,29.70
2022-08-28T14:16:27.814Z,29.40
2022-08-28T14:19:34.359Z,29.10
2022-08-28T14:22:41.349Z,29.10
2022-08-28T14:25:49.183Z,29.20
2022-08-28T14:28:55.980Z,29.20
2022-08-28T14:32:04.147Z,28.80
2022-08-28T14:35:11.533Z,28.40
2022-08-28T14:38:18.134Z,28.30
2022-08-28T14:41:27.160Z,28.00
2022-08-28T14:44:33.923Z,27.70
2022-08-28T14:47:40.517Z,27.70
2022-08-28T14:50:49.144Z,27.70
2022-08-28T14:53:55.786Z,27.30
2022-08-28T14:57:03.711Z,27.00
2022-08-28T15:00:15.229Z,26.80
2022-08-28T15:03:22.813Z,26.80
2022-08-28T15:06:29.554Z,26.80
2022-08-28T15:09:39.972Z,26.90
2022-08-28T15:12:48.201Z,27.10
2022-08-28T15:16:03.876Z,27.10
2022-08-28T15:19:12.308Z,26.90
2022-08-28T15:22:27.170Z,26.50
2022-08-28T15:25:33.939Z,26.30
2022-08-28T15:28:41.781Z,26.10
2022-08-28T15:31:50.984Z,26.10
2022-08-28T15:34:57.444Z,26.10
2022-08-28T15:38:04.938Z,26.10
2022-08-28T15:41:26.413Z,26.00
2022-08-28T15:44:35.263Z,26.00
2022-08-28T15:47:41.713Z,25.70
2022-08-28T15:50:48.097Z,25.70
2022-08-28T15:53:55.072Z,25.60
2022-08-28T15:57:01.544Z,25.60
2022-08-28T16:00:11.836Z,25.30
2022-08-28T16:03:18.519Z,25.00
2022-08-28T16:06:25.028Z,24.80
2022-08-28T16:09:31.939Z,24.80
2022-08-28T16:12:39.565Z,24.90
2022-08-28T16:15:48.758Z,24.90
2022-08-28T16:18:55.152Z,24.90
2022-08-28T16:22:01.683Z,24.90
2022-08-28T16:25:10.519Z,24.60
2022-08-28T16:28:17.182Z,24.40
2022-08-28T16:31:25.497Z,24.10
2022-08-28T16:34:33.258Z,23.70
2022-08-28T16:37:40.343Z,23.50
2022-08-28T16:40:48.169Z,23.40
2022-08-28T16:43:56.123Z,23.50
2022-08-28T16:47:04.399Z,23.60
2022-08-28T16:50:14.078Z,23.50
2022-08-28T16:53:24.934Z,23.40
2022-08-28T16:56:34.158Z,23.30
2022-08-28T16:59:41.210Z,23.30
2022-08-28T17:02:49.556Z,23.20
2022-08-28T17:05:58.037Z,23.10
2022-08-28T17:09:04.973Z,23.00
2022-08-28T17:12:11.619Z,23.00
2022-08-28T17:15:22.207Z,22.80
2022-08-28T17:18:30.334Z,22.70
2022-08-28T17:21:54.447Z,22.50
2022-08-28T17:25:03.160Z,22.50
2022-08-28T17:28:10.692Z,22.40
2022-08-28T17:31:17.159Z,22.40
2022-08-28T17:34:30.005Z,22.40
2022-08-28T17:37:37.954Z,22.20
2022-08-28T17:40:44.979Z,22.10
2022-08-28T17:43:51.989Z,22.00
2022-08-28T17:46:58.356Z,21.90
2022-08-28T17:50:07.770Z,21.80
2022-08-28T17:53:14.795Z,21.70
2022-08-28T17:56:21.653Z,21.60
2022-08-28T17:59:42.485Z,21.40
2022-08-28T18:02:52.138Z,21.20
2022-08-28T18:06:01.220Z,21.10
2022-08-28T18:09:09.966Z,20.90
2022-08-28T18:12:16.689Z,20.80
2022-08-28T18:15:23.165Z,20.60
2022-08-28T18:18:33.014Z,20.50
2022-08-28T18:21:44.718Z,20.40
2022-08-28T18:24:53.561Z,20.40
2022-08-28T18:28:00.176Z,20.30
2022-08-28T18:31:08.127Z,20.10
2022-08-28T18:34:15.019Z,20.10
2022-08-28T18:37:23.130Z,20.00
2022-08-28T18:40:30.259Z,19.90
2022-08-28T18:43:37.619Z,19.80
2022-08-28T18:46:45.918Z,19.70
2022-08-28T18:49:52.122Z,19.60
2022-08-28T18:53:00.820Z,19.50
2022-08-28T18:56:07.603Z,19.40
2022-08-28T18:59:16.634Z,19.30
2022-08-28T19:02:23.165Z,19.20
2022-08-28T19:05:29.359Z,19.10
2022-08-28T19:08:37.704Z,19.10
2022-08-28T19:11:44.315Z,19.00
2022-08-28T19:14:55.347Z,18.90
2022-08-28T19:18:09.890Z,18.90
2022-08-28T19:21:19.688Z,18.80
2022-08-28T19:24:31.243Z,18.80
2022-08-28T19:27:38.126Z,18.70
2022-08-28T19:30:47.272Z,18.70
2022-08-28T19:33:53.590Z,18.60
2022-08-28T19:37:01.029Z,18.60
2022-08-28T19:40:12.012Z,18.50
2022-08-28T19:43:19.165Z,18.50
2022-08-28T19:46:25.932Z,18.50
2022-08-28T19:49:32.402Z,18.40
2022-08-28T19:52:39.541Z,18.40
2022-08-28T19:55:47.679Z,18.40
2022-08-28T19:58:54.711Z,18.40
2022-08-28T20:02:03.080Z,18.30
2022-08-28T20:05:11.893Z,18.20
2022-08-28T20:08:19.898Z,18.20
2022-08-28T20:11:30.403Z,18.20
2022-08-28T20:14:38.792Z,18.10
2022-08-28T20:17:49.584Z,18.10
2022-08-28T20:20:56.654Z,18.10
2022-08-28T20:24:04.362Z,18.00
2022-08-28T20:27:12.478Z,18.00
2022-08-28T20:30:19.670Z,18.00
2022-08-28T20:33:26.482Z,17.90
2022-08-28T20:36:33.195Z,17.90
2022-08-28T20:39:41.637Z,17.90
2022-08-28T20:42:50.031Z,17.80
2022-08-28T20:45:56.680Z,17.90
2022-08-28T20:49:03.429Z,17.80
2022-08-28T20:52:10.387Z,17.80
2022-08-28T20:55:16.971Z,17.70
2022-08-28T20:58:25.395Z,17.70
2022-08-28T21:01:31.952Z,17.70
2022-08-28T21:04:39.761Z,17.70
2022-08-28T21:07:46.611Z,17.60
2022-08-28T21:10:53.642Z,17.60
2022-08-28T21:14:01.595Z,17.60
2022-08-28T21:17:08.758Z,17.60
2022-08-28T21:20:16.318Z,17.50
2022-08-28T21:23:23.774Z,17.50
2022-08-28T21:26:30.307Z,17.50
2022-08-28T21:29:38.383Z,17.40
2022-08-28T21:32:45.607Z,17.40
2022-08-28T21:35:52.023Z,17.40
2022-08-28T21:38:59.289Z,17.30
2022-08-28T21:42:06.185Z,17.30
2022-08-28T21:45:14.613Z,17.30
2022-08-28T21:48:21.507Z,17.20
2022-08-28T21:51:30.715Z,17.20
2022-08-28T21:54:37.044Z,17.20
2022-08-28T21:57:44.609Z,17.10
2022-08-28T22:00:56.824Z,17.10
2022-08-28T22:04:04.415Z,17.00
2022-08-28T22:07:12.016Z,17.00
2022-08-28T22:10:18.682Z,17.00
2022-08-28T22:13:25.399Z,17.00
2022-08-28T22:16:33.515Z,16.90
2022-08-28T22:19:40.459Z,16.90
2022-08-28T22:23:04.634Z,16.80
2022-08-28T22:26:16.305Z,16.80
2022-08-28T22:29:22.761Z,16.80
2022-08-28T22:32:30.398Z,16.70
2022-08-28T22:35:36.903Z,16.70
2022-08-28T22:38:49.773Z,16.70
2022-08-28T22:42:00.186Z,16.70
2022-08-28T22:45:09.515Z,16.70
2022-08-28T22:48:18.662Z,16.70
2022-08-28T22:51:25.655Z,16.60
2022-08-28T22:54:34.159Z,16.60
2022-08-28T22:57:41.198Z,16.50
2022-08-28T23:00:47.495Z,16.50
2022-08-28T23:03:55.271Z,16.50
2022-08-28T23:07:02.063Z,16.50
2022-08-28T23:10:10.020Z,16.50
2022-08-28T23:13:16.887Z,16.50
2022-08-28T23:16:24.666Z,16.50
2022-08-28T23:19:32.466Z,16.50
2022-08-28T23:22:40.182Z,16.50
2022-08-28T23:25:46.737Z,16.50
2022-08-28T23:28:53.421Z,16.40
2022-08-28T23:31:59.910Z,16.50
2022-08-28T23:35:11.440Z,16.50
2022-08-28T23:38:17.869Z,16.40
2022-08-28T23:41:24.591Z,16.40
2022-08-28T23:44:31.333Z,16.50
2022-08-28T23:47:40.362Z,16.50
2022-08-28T23:50:49.088Z,16.40
2022-08-28T23:53:55.617Z,16.40
2022-08-28T23:57:02.205Z,16.40
